createdAt,value
2018-09-08T00:00:28.187Z,5.93
2018-09-08T00:02:55.392Z,5.07
2018-09-08T00:05:22.623Z,5.17
2018-09-08T00:07:49.745Z,5.40
2018-09-08T00:10:17.120Z,5.23
2018-09-08T00:12:44.191Z,4.70
2018-09-08T00:15:16.944Z,4.80
2018-09-08T00:17:49.878Z,5.07
2018-09-08T00:20:22.927Z,4.80
2018-09-08T00:22:55.625Z,4.90
2018-09-08T00:25:28.567Z,4.80
2018-09-08T00:28:05.402Z,4.87
2018-09-08T00:30:32.554Z,4.70
2018-09-08T00:32:59.669Z,4.43
2018-09-08T00:35:26.763Z,4.57
2018-09-08T00:37:53.970Z,4.90
2018-09-08T00:40:21.178Z,4.50
2018-09-08T00:42:48.398Z,4.87
2018-09-08T00:45:15.623Z,5.17
2018-09-08T00:47:42.715Z,4.30
2018-09-08T00:50:09.832Z,4.50
2018-09-08T00:52:37.082Z,4.30
2018-09-08T00:55:04.403Z,4.40
2018-09-08T00:57:31.540Z,4.57
2018-09-08T00:59:58.754Z,4.60
2018-09-08T01:02:25.892Z,4.90
2018-09-08T01:04:53.079Z,5.27
2018-09-08T01:07:25.838Z,4.90
2018-09-08T01:09:52.965Z,4.90
2018-09-08T01:12:20.061Z,4.90
2018-09-08T01:14:47.223Z,4.70
2018-09-08T01:17:14.371Z,5.40
2018-09-08T01:19:41.495Z,5.40
2018-09-08T01:22:08.868Z,5.00
2018-09-08T01:24:35.965Z,5.47
2018-09-08T01:27:03.067Z,5.37
2018-09-08T01:29:30.283Z,6.00
2018-09-08T01:31:57.360Z,5.50
2018-09-08T01:34:24.459Z,5.80
2018-09-08T01:36:51.686Z,5.40
2018-09-08T01:39:18.779Z,5.20
2018-09-08T01:41:45.975Z,5.30
2018-09-08T01:44:13.111Z,5.03
2018-09-08T01:46:40.236Z,5.63
2018-09-08T01:49:07.403Z,5.30
2018-09-08T01:51:34.571Z,6.13
2018-09-08T01:54:01.750Z,6.20
2018-09-08T01:56:28.861Z,6.53
2018-09-08T01:58:56.035Z,6.30
2018-09-08T02:01:23.244Z,6.00
2018-09-08T02:03:50.336Z,5.70
2018-09-08T02:06:18.019Z,6.27
2018-09-08T02:08:45.128Z,5.40
2018-09-08T02:11:12.241Z,5.67
2018-09-08T02:13:39.383Z,6.27
2018-09-08T02:16:06.486Z,6.13
2018-09-08T02:18:33.711Z,6.50
2018-09-08T02:21:00.861Z,6.60
2018-09-08T02:23:27.964Z,5.97
2018-09-08T02:25:55.047Z,6.17
2018-09-08T02:28:22.196Z,5.90
2018-09-08T02:30:49.359Z,6.00
2018-09-08T02:33:16.472Z,5.83
2018-09-08T02:35:43.685Z,6.07
2018-09-08T02:38:10.758Z,5.50
2018-09-08T02:40:37.835Z,5.87
2018-09-08T02:43:05.039Z,5.27
2018-09-08T02:45:32.148Z,6.20
2018-09-08T02:47:59.223Z,5.90
2018-09-08T02:50:43.235Z,6.13
2018-09-08T02:53:10.778Z,6.27
2018-09-08T02:55:37.233Z,6.67
2018-09-08T02:58:03.426Z,6.37
2018-09-08T03:00:30.060Z,5.77
2018-09-08T03:02:56.202Z,6.37
2018-09-08T03:05:22.754Z,6.53
2018-09-08T03:07:49.090Z,6.30
2018-09-08T03:10:15.691Z,5.90
2018-09-08T03:12:41.898Z,5.27
2018-09-08T03:15:08.047Z,5.53
2018-09-08T03:17:34.288Z,5.30
2018-09-08T03:20:00.606Z,5.60
2018-09-08T03:22:26.766Z,5.53
2018-09-08T03:24:52.939Z,6.07
2018-09-08T03:27:19.166Z,5.53
2018-09-08T03:29:45.435Z,6.17
2018-09-08T03:32:11.955Z,5.77
2018-09-08T03:34:38.147Z,6.83
2018-09-08T03:37:04.328Z,5.93
2018-09-08T03:39:31.137Z,5.87
2018-09-08T03:41:57.420Z,6.10
2018-09-08T03:44:23.592Z,6.23
2018-09-08T03:46:49.743Z,5.80
2018-09-08T03:49:16.043Z,6.23
2018-09-08T03:51:42.383Z,6.17
2018-09-08T03:54:08.615Z,6.07
2018-09-08T03:56:34.807Z,5.70
2018-09-08T03:59:00.978Z,5.77
2018-09-08T04:01:27.179Z,6.20
2018-09-08T04:03:55.207Z,5.93
2018-09-08T04:06:22.386Z,5.23
2018-09-08T04:08:49.462Z,5.77
2018-09-08T04:11:16.816Z,6.47
2018-09-08T04:13:43.897Z,6.07
2018-09-08T04:16:11.151Z,6.23
2018-09-08T04:18:38.443Z,6.17
2018-09-08T04:21:05.607Z,6.53
2018-09-08T04:23:32.805Z,6.33
2018-09-08T04:26:00.647Z,7.00
2018-09-08T04:28:27.726Z,6.73
2018-09-08T04:30:54.964Z,5.73
2018-09-08T04:33:22.115Z,6.27
2018-09-08T04:35:49.204Z,6.10
2018-09-08T04:38:16.295Z,6.33
2018-09-08T04:40:43.411Z,5.87
2018-09-08T04:43:10.675Z,5.93
2018-09-08T04:45:37.738Z,5.87
2018-09-08T04:48:04.912Z,6.13
2018-09-08T04:50:31.993Z,6.43
2018-09-08T04:52:59.081Z,6.53
2018-09-08T04:55:26.608Z,6.70
2018-09-08T04:57:55.048Z,6.90
2018-09-08T05:00:22.174Z,6.63
2018-09-08T05:02:49.363Z,6.30
2018-09-08T05:05:16.572Z,6.30
2018-09-08T05:07:43.813Z,6.70
2018-09-08T05:10:10.980Z,6.77
2018-09-08T05:12:40.428Z,7.27
2018-09-08T05:15:07.684Z,6.63
2018-09-08T05:17:34.995Z,7.03
2018-09-08T05:20:02.205Z,7.33
2018-09-08T05:22:29.379Z,7.57
2018-09-08T05:24:56.504Z,8.03
2018-09-08T05:27:23.604Z,7.43
2018-09-08T05:29:50.679Z,8.40
2018-09-08T05:32:17.983Z,8.90
2018-09-08T05:34:45.082Z,8.77
2018-09-08T05:37:12.160Z,8.07
2018-09-08T05:39:39.346Z,8.00
2018-09-08T05:42:06.462Z,8.20
2018-09-08T05:44:33.686Z,7.50
2018-09-08T05:47:00.878Z,7.67
2018-09-08T05:49:27.946Z,7.77
2018-09-08T05:51:55.045Z,8.20
2018-09-08T05:54:22.530Z,7.37
2018-09-08T05:56:49.915Z,7.83
2018-09-08T05:59:17.179Z,8.03
2018-09-08T06:01:44.334Z,7.17
2018-09-08T06:04:11.443Z,7.63
2018-09-08T06:06:39.072Z,7.90
2018-09-08T06:09:07.007Z,8.57
2018-09-08T06:11:34.263Z,7.70
2018-09-08T06:14:01.356Z,7.33
2018-09-08T06:16:28.564Z,7.83
2018-09-08T06:18:55.666Z,7.93
2018-09-08T06:21:22.775Z,7.57
2018-09-08T06:23:49.919Z,8.37
2018-09-08T06:26:17.011Z,6.77
2018-09-08T06:28:44.746Z,7.47
2018-09-08T06:31:11.939Z,7.57
2018-09-08T06:33:39.061Z,6.83
2018-09-08T06:36:07.072Z,7.70
2018-09-08T06:38:34.276Z,6.93
2018-09-08T06:41:01.371Z,7.03
2018-09-08T06:43:28.455Z,6.77
2018-09-08T06:45:55.609Z,6.00
2018-09-08T06:48:23.135Z,5.80
2018-09-08T06:50:50.257Z,5.83
2018-09-08T06:53:18.066Z,5.03
2018-09-08T06:55:45.168Z,5.50
2018-09-08T06:58:13.009Z,5.43
2018-09-08T07:00:40.565Z,5.73
2018-09-08T07:03:07.667Z,5.50
2018-09-08T07:05:34.808Z,5.30
2018-09-08T07:08:01.939Z,4.73
2018-09-08T07:10:29.104Z,5.00
2018-09-08T07:12:56.179Z,5.60
2018-09-08T07:15:23.299Z,4.97
2018-09-08T07:17:50.362Z,4.60
2018-09-08T07:20:17.443Z,4.37
2018-09-08T07:22:44.670Z,3.90
2018-09-08T07:25:11.848Z,4.20
2018-09-08T07:27:38.910Z,4.03
2018-09-08T07:30:06.398Z,3.67
2018-09-08T07:32:33.470Z,4.10
2018-09-08T07:35:00.687Z,3.77
2018-09-08T07:37:27.919Z,4.00
2018-09-08T07:39:54.902Z,3.33
2018-09-08T07:42:21.976Z,3.10
2018-09-08T07:44:49.128Z,3.10
2018-09-08T07:47:17.041Z,3.27
2018-09-08T07:49:44.100Z,4.70
2018-09-08T07:52:11.246Z,3.00
2018-09-08T07:54:38.386Z,2.80
2018-09-08T07:57:05.501Z,2.80
2018-09-08T07:59:32.777Z,3.10
2018-09-08T08:01:59.878Z,2.70
2018-09-08T08:04:26.976Z,2.50
2018-09-08T08:06:54.145Z,2.30
2018-09-08T08:09:21.291Z,2.80
2018-09-08T08:11:48.513Z,2.80
2018-09-08T08:14:15.661Z,2.70
2018-09-08T08:16:42.739Z,2.90
2018-09-08T08:19:09.852Z,2.83
2018-09-08T08:21:37.008Z,2.70
2018-09-08T08:24:04.168Z,2.57
2018-09-08T08:26:31.251Z,2.33
2018-09-08T08:28:58.415Z,2.30
2018-09-08T08:31:25.593Z,2.10
2018-09-08T08:33:52.787Z,2.17
2018-09-08T08:36:20.090Z,2.07
2018-09-08T08:38:47.224Z,2.13
2018-09-08T08:41:14.303Z,2.10
2018-09-08T08:43:41.457Z,2.10
2018-09-08T08:46:08.606Z,1.80
2018-09-08T08:48:35.785Z,1.80
2018-09-08T08:51:14.455Z,1.77
2018-09-08T08:53:53.059Z,1.60
2018-09-08T08:56:20.310Z,1.40
2018-09-08T08:58:47.470Z,1.77
2018-09-08T09:01:14.540Z,1.60
2018-09-08T09:03:41.688Z,1.50
2018-09-08T09:06:08.907Z,1.20
2018-09-08T09:08:36.381Z,1.30
2018-09-08T09:11:03.247Z,1.23
2018-09-08T09:13:30.395Z,1.50
2018-09-08T09:15:57.474Z,1.40
2018-09-08T09:18:37.255Z,1.50
2018-09-08T09:21:15.600Z,1.40
2018-09-08T09:25:04.879Z,1.60
2018-09-08T09:27:33.231Z,1.47
2018-09-08T09:30:00.711Z,2.13
2018-09-08T09:32:27.981Z,1.50
2018-09-08T09:34:55.117Z,1.70
2018-09-08T09:37:22.301Z,1.63
2018-09-08T09:39:50.524Z,1.67
2018-09-08T09:42:17.875Z,1.60
2018-09-08T09:44:45.091Z,1.70
2018-09-08T09:47:12.212Z,1.73
2018-09-08T09:49:39.390Z,1.53
2018-09-08T09:52:06.483Z,1.67
2018-09-08T09:54:33.641Z,1.63
2018-09-08T09:57:00.824Z,1.40
2018-09-08T09:59:27.966Z,1.70
2018-09-08T10:02:00.968Z,1.77
2018-09-08T10:04:28.070Z,1.73
2018-09-08T10:06:55.179Z,1.70
2018-09-08T10:09:22.545Z,1.40
2018-09-08T10:11:49.669Z,1.73
2018-09-08T10:14:17.594Z,1.70
2018-09-08T10:16:45.908Z,2.00
2018-09-08T10:19:13.018Z,1.63
2018-09-08T10:21:40.529Z,2.03
2018-09-08T10:24:07.692Z,1.60
2018-09-08T10:26:34.800Z,1.57
2018-09-08T10:29:01.931Z,1.40
2018-09-08T10:31:29.130Z,1.60
2018-09-08T10:33:56.359Z,1.70
2018-09-08T10:36:23.502Z,1.57
2018-09-08T10:38:50.651Z,1.60
2018-09-08T10:41:17.852Z,1.50
2018-09-08T10:43:44.946Z,1.23
2018-09-08T10:46:12.198Z,1.90
2018-09-08T10:48:39.325Z,1.47
2018-09-08T10:51:19.916Z,1.50
2018-09-08T10:53:47.037Z,1.50
2018-09-08T10:56:14.261Z,1.33
2018-09-08T10:58:41.411Z,1.37
2018-09-08T11:01:08.515Z,1.57
2018-09-08T11:03:35.645Z,1.47
2018-09-08T11:06:02.775Z,1.40
2018-09-08T11:08:29.957Z,1.40
2018-09-08T11:10:57.280Z,1.70
2018-09-08T11:13:24.454Z,1.43
2018-09-08T11:15:51.552Z,1.30
2018-09-08T11:18:18.683Z,1.60
2018-09-08T11:20:47.289Z,1.40
2018-09-08T11:23:14.908Z,1.60
2018-09-08T11:25:42.005Z,1.70
2018-09-08T11:28:09.382Z,1.63
2018-09-08T11:30:36.478Z,1.40
2018-09-08T11:33:03.646Z,1.83
2018-09-08T11:35:30.811Z,1.70
2018-09-08T11:37:57.947Z,1.50
2018-09-08T11:40:25.035Z,1.73
2018-09-08T11:42:52.175Z,1.37
2018-09-08T11:45:19.918Z,1.37
2018-09-08T11:47:47.032Z,1.70
2018-09-08T11:50:14.395Z,3.57
2018-09-08T11:52:41.572Z,1.77
2018-09-08T11:55:08.728Z,1.87
2018-09-08T11:57:36.746Z,1.47
2018-09-08T12:00:04.669Z,1.70
2018-09-08T12:02:32.643Z,1.33
2018-09-08T12:04:59.767Z,1.33
2018-09-08T12:07:27.222Z,1.50
2018-09-08T12:09:54.382Z,1.40
2018-09-08T12:12:21.532Z,1.83
2018-09-08T12:14:49.068Z,1.67
2018-09-08T12:17:16.164Z,1.30
2018-09-08T12:19:43.290Z,1.30
2018-09-08T12:22:10.535Z,1.50
2018-09-08T12:24:37.646Z,1.40
2018-09-08T12:27:04.943Z,1.33
2018-09-08T12:29:32.041Z,1.50
2018-09-08T12:31:59.164Z,1.20
2018-09-08T12:34:27.224Z,1.40
2018-09-08T12:36:54.322Z,1.27
2018-09-08T12:39:21.405Z,1.43
2018-09-08T12:41:48.531Z,1.40
2018-09-08T12:44:16.183Z,1.17
2018-09-08T12:46:43.376Z,1.57
2018-09-08T12:49:10.503Z,1.50
2018-09-08T12:51:37.566Z,1.20
2018-09-08T12:54:04.676Z,1.17
2018-09-08T12:56:31.878Z,1.40
2018-09-08T12:58:59.163Z,1.27
2018-09-08T13:01:26.215Z,1.30
2018-09-08T13:03:53.370Z,1.70
2018-09-08T13:06:20.492Z,1.37
2018-09-08T13:08:47.594Z,1.20
2018-09-08T13:11:14.855Z,1.27
2018-09-08T13:13:41.926Z,1.47
2018-09-08T13:16:08.998Z,1.40
2018-09-08T13:18:36.442Z,1.20
2018-09-08T13:21:03.567Z,1.40
2018-09-08T13:23:30.747Z,1.33
2018-09-08T13:25:57.883Z,1.20
2018-09-08T13:28:25.087Z,1.40
2018-09-08T13:30:52.174Z,1.40
2018-09-08T13:33:20.279Z,1.60
2018-09-08T13:35:47.449Z,1.13
2018-09-08T13:38:14.506Z,1.30
2018-09-08T13:40:41.631Z,1.30
2018-09-08T13:43:08.708Z,1.47
2018-09-08T13:45:35.775Z,1.20
2018-09-08T13:48:03.017Z,3.27
2018-09-08T13:50:30.108Z,1.30
2018-09-08T13:52:57.385Z,17.63
2018-09-08T13:55:24.867Z,2.60
2018-09-08T13:57:52.416Z,2.60
2018-09-08T14:00:19.726Z,1.20
2018-09-08T14:02:46.900Z,1.33
2018-09-08T14:05:14.110Z,1.70
2018-09-08T14:07:47.020Z,1.40
2018-09-08T14:10:14.147Z,1.27
2018-09-08T14:12:41.315Z,1.47
2018-09-08T14:15:08.439Z,1.20
2018-09-08T14:17:35.552Z,1.13
2018-09-08T14:20:02.653Z,1.23
2018-09-08T14:22:29.788Z,1.20
2018-09-08T14:24:56.954Z,1.23
2018-09-08T14:27:24.079Z,1.03
2018-09-08T14:29:51.223Z,1.60
2018-09-08T14:32:18.331Z,1.30
2018-09-08T14:34:45.506Z,1.90
2018-09-08T14:37:12.759Z,1.40
2018-09-08T14:39:39.859Z,1.20
2018-09-08T14:42:06.939Z,1.00
2018-09-08T14:44:34.075Z,1.27
2018-09-08T14:47:01.218Z,1.23
2018-09-08T14:49:28.378Z,1.10
2018-09-08T14:51:55.969Z,1.27
2018-09-08T14:54:23.059Z,1.60
2018-09-08T14:56:50.332Z,1.20
2018-09-08T14:59:17.439Z,1.90
2018-09-08T15:01:44.766Z,1.37
2018-09-08T15:04:11.845Z,1.40
2018-09-08T15:06:39.518Z,1.13
2018-09-08T15:09:06.656Z,1.23
2018-09-08T15:11:33.885Z,1.20
2018-09-08T15:14:01.138Z,1.20
2018-09-08T15:16:28.319Z,1.20
2018-09-08T15:18:55.418Z,1.10
2018-09-08T15:21:22.549Z,1.30
2018-09-08T15:23:49.640Z,1.40
2018-09-08T15:26:16.832Z,1.10
2018-09-08T15:28:43.981Z,1.40
2018-09-08T15:31:11.063Z,1.27
2018-09-08T15:33:38.158Z,1.50
2018-09-08T15:36:05.363Z,1.40
2018-09-08T15:38:32.524Z,1.37
2018-09-08T15:40:59.615Z,1.40
2018-09-08T15:43:26.756Z,1.27
2018-09-08T15:45:53.938Z,1.50
2018-09-08T15:48:21.752Z,1.27
2018-09-08T15:50:48.985Z,1.30
2018-09-08T15:53:16.118Z,1.40
2018-09-08T15:55:43.236Z,1.20
2018-09-08T15:58:10.445Z,1.30
2018-09-08T16:00:37.503Z,1.30
2018-09-08T16:03:04.679Z,1.30
2018-09-08T16:05:31.840Z,1.30
2018-09-08T16:08:02.712Z,1.40
2018-09-08T16:10:30.360Z,1.50
2018-09-08T16:12:57.537Z,1.50
2018-09-08T16:15:24.722Z,1.30
2018-09-08T16:17:51.817Z,1.23
2018-09-08T16:20:18.964Z,1.20
2018-09-08T16:22:46.039Z,1.50
2018-09-08T16:25:13.123Z,1.50
2018-09-08T16:27:40.339Z,1.60
2018-09-08T16:30:07.721Z,1.30
2018-09-08T16:32:34.840Z,1.20
2018-09-08T16:35:01.963Z,1.20
2018-09-08T16:37:29.787Z,1.60
2018-09-08T16:39:56.989Z,1.33
2018-09-08T16:42:24.162Z,1.10
2018-09-08T16:44:51.247Z,1.60
2018-09-08T16:47:18.375Z,1.87
2018-09-08T16:49:45.647Z,2.20
2018-09-08T16:52:12.974Z,2.50
2018-09-08T16:54:40.005Z,2.40
2018-09-08T16:57:07.148Z,2.10
2018-09-08T16:59:34.579Z,1.87
2018-09-08T17:02:01.717Z,1.50
2018-09-08T17:04:28.919Z,1.97
2018-09-08T17:06:56.043Z,1.90
2018-09-08T17:09:23.107Z,1.93
2018-09-08T17:11:50.253Z,2.10
2018-09-08T17:14:17.474Z,2.37
2018-09-08T17:16:44.645Z,2.20
2018-09-08T17:19:12.039Z,2.30
2018-09-08T17:21:39.124Z,2.40
2018-09-08T17:24:06.236Z,2.33
2018-09-08T17:26:33.434Z,2.13
2018-09-08T17:29:00.627Z,2.30
2018-09-08T17:31:27.807Z,2.40
2018-09-08T17:33:54.951Z,2.80
2018-09-08T17:36:22.036Z,2.73
2018-09-08T17:38:49.240Z,2.93
2018-09-08T17:41:16.459Z,3.50
2018-09-08T17:43:43.547Z,3.97
2018-09-08T17:46:10.720Z,3.70
2018-09-08T17:48:37.875Z,3.63
2018-09-08T17:51:05.047Z,3.60
2018-09-08T17:53:32.644Z,3.93
2018-09-08T17:55:59.782Z,3.77
2018-09-08T17:58:26.898Z,4.13
2018-09-08T18:00:54.003Z,4.20
2018-09-08T18:03:21.195Z,4.87
2018-09-08T18:05:48.500Z,5.47
2018-09-08T18:08:24.161Z,6.00
2018-09-08T18:10:51.338Z,5.80
2018-09-08T18:13:18.413Z,5.60
2018-09-08T18:15:45.619Z,5.67
2018-09-08T18:18:12.775Z,6.03
2018-09-08T18:20:39.939Z,6.27
2018-09-08T18:23:07.236Z,5.30
2018-09-08T18:25:34.323Z,5.60
2018-09-08T18:28:01.459Z,5.30
2018-09-08T18:30:28.760Z,5.57
2018-09-08T18:32:56.882Z,4.90
2018-09-08T18:35:23.997Z,5.37
2018-09-08T18:37:51.149Z,5.07
2018-09-08T18:40:18.290Z,5.27
2018-09-08T18:42:45.500Z,5.47
2018-09-08T18:45:12.615Z,6.10
2018-09-08T18:47:39.733Z,6.10
2018-09-08T18:50:07.031Z,5.93
2018-09-08T18:52:34.219Z,7.50
2018-09-08T18:55:01.419Z,7.03
2018-09-08T18:57:28.970Z,7.73
2018-09-08T18:59:56.103Z,7.77
2018-09-08T19:02:23.236Z,7.23
2018-09-08T19:04:50.367Z,7.97
2018-09-08T19:07:17.726Z,7.63
2018-09-08T19:09:49.412Z,7.77
2018-09-08T19:12:16.547Z,8.13
2018-09-08T19:14:49.432Z,7.97
2018-09-08T19:17:16.695Z,8.60
2018-09-08T19:19:43.795Z,8.53
2018-09-08T19:22:10.970Z,8.00
2018-09-08T19:24:42.631Z,9.40
2018-09-08T19:27:09.713Z,7.93
2018-09-08T19:29:42.767Z,8.73
2018-09-08T19:32:09.855Z,9.83
2018-09-08T19:34:37.332Z,11.07
2018-09-08T19:37:05.112Z,12.40
2018-09-08T19:39:32.205Z,12.67
2018-09-08T19:41:59.327Z,16.60
2018-09-08T19:44:26.490Z,14.67
2018-09-08T19:46:59.484Z,15.67
2018-09-08T19:49:26.640Z,16.30
2018-09-08T19:51:53.762Z,15.33
2018-09-08T19:54:21.312Z,17.13
2018-09-08T19:56:54.178Z,15.57
2018-09-08T19:59:21.911Z,15.30
2018-09-08T20:01:48.983Z,15.90
2018-09-08T20:04:16.339Z,15.17
2018-09-08T20:06:43.437Z,17.47
2018-09-08T20:09:10.791Z,16.00
2018-09-08T20:11:38.013Z,16.23
2018-09-08T20:14:05.226Z,15.07
2018-09-08T20:16:32.606Z,14.30
2018-09-08T20:18:59.832Z,14.57
2018-09-08T20:21:26.926Z,13.27
2018-09-08T20:23:54.005Z,13.27
2018-09-08T20:26:21.823Z,13.40
2018-09-08T20:28:49.171Z,13.67
2018-09-08T20:31:16.307Z,13.67
2018-09-08T20:33:43.418Z,13.10
2018-09-08T20:36:10.511Z,13.20
2018-09-08T20:38:37.695Z,15.17
2018-09-08T20:41:05.125Z,14.97
2018-09-08T20:43:32.215Z,15.37
2018-09-08T20:45:59.271Z,17.10
2018-09-08T20:48:26.955Z,18.80
2018-09-08T20:50:54.060Z,16.00
2018-09-08T20:53:21.132Z,15.80
2018-09-08T20:55:48.304Z,16.57
2018-09-08T20:58:15.394Z,15.47
2018-09-08T21:00:42.476Z,15.63
2018-09-08T21:03:09.645Z,15.30
2018-09-08T21:05:36.786Z,15.10
2018-09-08T21:08:03.880Z,15.17
2018-09-08T21:10:31.039Z,16.13
2018-09-08T21:12:58.188Z,14.67
2018-09-08T21:15:25.279Z,15.07
2018-09-08T21:17:52.419Z,15.50
2018-09-08T21:20:20.635Z,15.30
2018-09-08T21:22:47.732Z,14.27
2018-09-08T21:25:14.896Z,13.67
2018-09-08T21:27:42.131Z,12.73
2018-09-08T21:30:09.185Z,12.17
2018-09-08T21:32:36.407Z,11.53
2018-09-08T21:35:03.615Z,11.90
2018-09-08T21:37:30.686Z,10.50
2018-09-08T21:39:57.895Z,11.60
2018-09-08T21:42:24.981Z,10.63
2018-09-08T21:44:52.200Z,8.70
2018-09-08T21:47:19.322Z,8.83
2018-09-08T21:49:46.521Z,9.00
2018-09-08T21:52:13.724Z,9.53
2018-09-08T21:54:40.922Z,8.73
2018-09-08T21:57:08.124Z,8.50
2018-09-08T21:59:35.277Z,9.50
2018-09-08T22:02:02.439Z,9.20
2018-09-08T22:04:29.548Z,8.73
2018-09-08T22:06:57.567Z,8.73
2018-09-08T22:09:24.811Z,8.53
2018-09-08T22:11:51.962Z,8.40
2018-09-08T22:14:19.315Z,7.10
2018-09-08T22:16:46.467Z,6.70
2018-09-08T22:19:13.578Z,6.40
2018-09-08T22:21:40.814Z,6.50
2018-09-08T22:24:08.186Z,6.23
2018-09-08T22:26:35.319Z,5.90
2018-09-08T22:29:02.430Z,6.37
2018-09-08T22:31:29.595Z,5.80
2018-09-08T22:33:56.793Z,6.27
2018-09-08T22:36:24.558Z,6.47
2018-09-08T22:38:51.772Z,6.37
2018-09-08T22:41:18.847Z,6.33
2018-09-08T22:43:45.952Z,6.37
2018-09-08T22:46:14.122Z,6.27
2018-09-08T22:48:41.210Z,5.60
2018-09-08T22:51:08.303Z,6.50
2018-09-08T22:53:35.459Z,6.20
2018-09-08T22:56:03.164Z,5.97
2018-09-08T22:58:30.350Z,6.30
2018-09-08T23:00:57.493Z,6.30
2018-09-08T23:03:24.592Z,5.80
2018-09-08T23:05:51.686Z,6.40
2018-09-08T23:08:18.826Z,6.33
2018-09-08T23:10:45.986Z,5.67
2018-09-08T23:13:13.095Z,5.87
2018-09-08T23:15:40.259Z,6.10
2018-09-08T23:18:07.391Z,6.13
2018-09-08T23:20:34.554Z,6.43
2018-09-08T23:23:01.798Z,6.70
2018-09-08T23:25:28.887Z,6.67
2018-09-08T23:27:56.003Z,7.20
2018-09-08T23:30:23.157Z,6.77
2018-09-08T23:32:50.252Z,7.67
2018-09-08T23:35:17.458Z,6.87
2018-09-08T23:37:44.583Z,7.10
2018-09-08T23:40:11.680Z,6.83
2018-09-08T23:42:38.761Z,6.50
2018-09-08T23:45:05.975Z,6.23
2018-09-08T23:47:33.211Z,6.07
2018-09-08T23:50:00.402Z,6.50
2018-09-08T23:52:27.554Z,5.93
2018-09-08T23:54:54.669Z,6.50
2018-09-08T23:57:21.785Z,5.77
2018-09-08T23:59:49.143Z,5.70
